sensor_id;sensor_type;location;lat;lon;timestamp;P1;durP1;ratioP1;P2;durP2;ratioP2
9388;SDS011;4734;52.778;6.798;2023-04-03T00:00:35;1.97;;;1.23;;
9388;SDS011;4734;52.778;6.798;2023-04-03T00:03:20;2.37;;;1.30;;
9388;SDS011;4734;52.778;6.798;2023-04-03T00:06:06;1.00;;;1.00;;
9388;SDS011;4734;52.778;6.798;2023-04-03T00:08:55;2.00;;;1.20;;
9388;SDS011;4734;52.778;6.798;2023-04-03T00:11:40;1.40;;;1.00;;
9388;SDS011;4734;52.778;6.798;2023-04-03T00:14:26;1.67;;;1.20;;
9388;SDS011;4734;52.778;6.798;2023-04-03T00:17:12;1.60;;;1.13;;
9388;SDS011;4734;52.778;6.798;2023-04-03T00:19:58;2.30;;;1.50;;
9388;SDS011;4734;52.778;6.798;2023-04-03T00:22:43;1.70;;;1.40;;
9388;SDS011;4734;52.778;6.798;2023-04-03T00:25:30;1.20;;;1.10;;
9388;SDS011;4734;52.778;6.798;2023-04-03T00:28:16;1.73;;;1.20;;
9388;SDS011;4734;52.778;6.798;2023-04-03T00:31:01;1.10;;;0.90;;
9388;SDS011;4734;52.778;6.798;2023-04-03T00:33:47;2.80;;;1.07;;
9388;SDS011;4734;52.778;6.798;2023-04-03T00:36:33;1.80;;;1.30;;
9388;SDS011;4734;52.778;6.798;2023-04-03T00:39:19;3.80;;;1.20;;
9388;SDS011;4734;52.778;6.798;2023-04-03T00:42:06;2.80;;;1.30;;
9388;SDS011;4734;52.778;6.798;2023-04-03T00:47:56;2.60;;;1.40;;
9388;SDS011;4734;52.778;6.798;2023-04-03T00:50:43;4.20;;;1.30;;
9388;SDS011;4734;52.778;6.798;2023-04-03T00:53:30;2.03;;;1.20;;
9388;SDS011;4734;52.778;6.798;2023-04-03T00:56:17;2.67;;;1.43;;
9388;SDS011;4734;52.778;6.798;2023-04-03T00:59:08;1.77;;;1.40;;
9388;SDS011;4734;52.778;6.798;2023-04-03T01:01:55;2.20;;;1.50;;
9388;SDS011;4734;52.778;6.798;2023-04-03T01:04:41;2.07;;;1.20;;
9388;SDS011;4734;52.778;6.798;2023-04-03T01:07:29;1.73;;;1.53;;
9388;SDS011;4734;52.778;6.798;2023-04-03T01:10:15;2.33;;;1.70;;
9388;SDS011;4734;52.778;6.798;2023-04-03T01:13:07;3.67;;;1.60;;
9388;SDS011;4734;52.778;6.798;2023-04-03T01:16:04;2.70;;;1.47;;
9388;SDS011;4734;52.778;6.798;2023-04-03T01:18:50;1.83;;;1.30;;
9388;SDS011;4734;52.778;6.798;2023-04-03T01:24:48;3.07;;;1.60;;
9388;SDS011;4734;52.778;6.798;2023-04-03T01:27:35;2.43;;;1.53;;
9388;SDS011;4734;52.778;6.798;2023-04-03T01:30:21;2.63;;;1.40;;
9388;SDS011;4734;52.778;6.798;2023-04-03T01:33:10;1.90;;;1.60;;
9388;SDS011;4734;52.778;6.798;2023-04-03T01:35:56;1.87;;;1.40;;
9388;SDS011;4734;52.778;6.798;2023-04-03T01:38:42;3.07;;;1.60;;
9388;SDS011;4734;52.778;6.798;2023-04-03T01:41:27;7.20;;;1.63;;
9388;SDS011;4734;52.778;6.798;2023-04-03T01:44:13;1.70;;;1.60;;
9388;SDS011;4734;52.778;6.798;2023-04-03T01:46:59;2.47;;;1.73;;
9388;SDS011;4734;52.778;6.798;2023-04-03T01:49:46;2.30;;;1.50;;
9388;SDS011;4734;52.778;6.798;2023-04-03T01:52:32;2.73;;;1.50;;
9388;SDS011;4734;52.778;6.798;2023-04-03T01:55:18;3.53;;;1.77;;
9388;SDS011;4734;52.778;6.798;2023-04-03T01:58:03;2.23;;;1.80;;
9388;SDS011;4734;52.778;6.798;2023-04-03T02:00:49;2.77;;;1.63;;
9388;SDS011;4734;52.778;6.798;2023-04-03T02:03:35;3.17;;;1.97;;
9388;SDS011;4734;52.778;6.798;2023-04-03T02:06:22;2.17;;;1.60;;
9388;SDS011;4734;52.778;6.798;2023-04-03T02:09:07;2.83;;;1.50;;
9388;SDS011;4734;52.778;6.798;2023-04-03T02:11:53;3.90;;;1.60;;
9388;SDS011;4734;52.778;6.798;2023-04-03T02:14:39;3.47;;;1.70;;
9388;SDS011;4734;52.778;6.798;2023-04-03T02:17:24;1.70;;;1.33;;
9388;SDS011;4734;52.778;6.798;2023-04-03T02:20:10;2.23;;;1.60;;
9388;SDS011;4734;52.778;6.798;2023-04-03T02:22:58;1.93;;;1.60;;
9388;SDS011;4734;52.778;6.798;2023-04-03T02:25:44;2.17;;;1.40;;
9388;SDS011;4734;52.778;6.798;2023-04-03T02:28:29;2.53;;;1.50;;
9388;SDS011;4734;52.778;6.798;2023-04-03T02:31:15;1.87;;;1.57;;
9388;SDS011;4734;52.778;6.798;2023-04-03T02:34:00;2.97;;;1.70;;
9388;SDS011;4734;52.778;6.798;2023-04-03T02:36:46;5.70;;;1.70;;
9388;SDS011;4734;52.778;6.798;2023-04-03T02:39:33;1.87;;;1.60;;
9388;SDS011;4734;52.778;6.798;2023-04-03T02:42:19;2.93;;;1.80;;
9388;SDS011;4734;52.778;6.798;2023-04-03T02:45:05;2.40;;;1.67;;
9388;SDS011;4734;52.778;6.798;2023-04-03T02:47:51;2.07;;;1.70;;
9388;SDS011;4734;52.778;6.798;2023-04-03T02:50:36;4.00;;;1.87;;
9388;SDS011;4734;52.778;6.798;2023-04-03T02:53:22;2.67;;;1.67;;
9388;SDS011;4734;52.778;6.798;2023-04-03T02:56:09;2.33;;;1.73;;
9388;SDS011;4734;52.778;6.798;2023-04-03T02:58:54;4.07;;;1.80;;
9388;SDS011;4734;52.778;6.798;2023-04-03T03:01:40;4.03;;;1.70;;
9388;SDS011;4734;52.778;6.798;2023-04-03T03:04:25;2.63;;;1.60;;
9388;SDS011;4734;52.778;6.798;2023-04-03T03:07:11;1.70;;;1.60;;
9388;SDS011;4734;52.778;6.798;2023-04-03T03:09:57;3.37;;;1.70;;
9388;SDS011;4734;52.778;6.798;2023-04-03T03:12:44;2.67;;;1.67;;
9388;SDS011;4734;52.778;6.798;2023-04-03T03:15:29;2.70;;;1.70;;
9388;SDS011;4734;52.778;6.798;2023-04-03T03:18:15;2.47;;;1.50;;
9388;SDS011;4734;52.778;6.798;2023-04-03T03:21:01;3.07;;;1.57;;
9388;SDS011;4734;52.778;6.798;2023-04-03T03:23:47;2.03;;;1.60;;
9388;SDS011;4734;52.778;6.798;2023-04-03T03:26:33;2.40;;;1.60;;
9388;SDS011;4734;52.778;6.798;2023-04-03T03:29:20;4.17;;;1.97;;
9388;SDS011;4734;52.778;6.798;2023-04-03T03:32:06;3.90;;;1.73;;
9388;SDS011;4734;52.778;6.798;2023-04-03T03:34:51;5.03;;;1.83;;
9388;SDS011;4734;52.778;6.798;2023-04-03T03:37:37;1.93;;;1.70;;
9388;SDS011;4734;52.778;6.798;2023-04-03T03:40:22;2.77;;;1.70;;
9388;SDS011;4734;52.778;6.798;2023-04-03T03:43:08;2.40;;;1.40;;
9388;SDS011;4734;52.778;6.798;2023-04-03T03:45:55;2.20;;;1.37;;
9388;SDS011;4734;52.778;6.798;2023-04-03T03:48:41;2.40;;;1.70;;
9388;SDS011;4734;52.778;6.798;2023-04-03T03:51:27;2.53;;;1.80;;
9388;SDS011;4734;52.778;6.798;2023-04-03T03:54:12;1.67;;;1.53;;
9388;SDS011;4734;52.778;6.798;2023-04-03T03:56:58;3.17;;;2.00;;
9388;SDS011;4734;52.778;6.798;2023-04-03T03:59:44;4.23;;;1.97;;
9388;SDS011;4734;52.778;6.798;2023-04-03T04:02:32;2.50;;;1.50;;
9388;SDS011;4734;52.778;6.798;2023-04-03T04:05:18;3.07;;;1.80;;
9388;SDS011;4734;52.778;6.798;2023-04-03T04:08:04;1.67;;;1.57;;
9388;SDS011;4734;52.778;6.798;2023-04-03T04:10:50;3.20;;;2.10;;
9388;SDS011;4734;52.778;6.798;2023-04-03T04:13:35;7.40;;;1.83;;
9388;SDS011;4734;52.778;6.798;2023-04-03T04:16:21;2.10;;;1.90;;
9388;SDS011;4734;52.778;6.798;2023-04-03T04:19:08;4.37;;;2.00;;
9388;SDS011;4734;52.778;6.798;2023-04-03T04:21:54;2.23;;;1.70;;
9388;SDS011;4734;52.778;6.798;2023-04-03T04:24:40;1.97;;;1.53;;
9388;SDS011;4734;52.778;6.798;2023-04-03T04:27:25;2.30;;;1.77;;
9388;SDS011;4734;52.778;6.798;2023-04-03T04:30:11;2.27;;;1.83;;
9388;SDS011;4734;52.778;6.798;2023-04-03T04:32:57;3.27;;;1.90;;
9388;SDS011;4734;52.778;6.798;2023-04-03T04:35:46;2.03;;;1.63;;
9388;SDS011;4734;52.778;6.798;2023-04-03T04:38:32;3.00;;;1.87;;
9388;SDS011;4734;52.778;6.798;2023-04-03T04:41:18;2.20;;;1.83;;
9388;SDS011;4734;52.778;6.798;2023-04-03T04:44:04;2.57;;;1.60;;
9388;SDS011;4734;52.778;6.798;2023-04-03T04:46:50;5.80;;;2.30;;
9388;SDS011;4734;52.778;6.798;2023-04-03T04:49:35;4.60;;;1.73;;
9388;SDS011;4734;52.778;6.798;2023-04-03T04:52:22;3.53;;;1.70;;
9388;SDS011;4734;52.778;6.798;2023-04-03T04:55:08;2.10;;;1.50;;
9388;SDS011;4734;52.778;6.798;2023-04-03T04:57:54;2.53;;;1.70;;
9388;SDS011;4734;52.778;6.798;2023-04-03T05:00:39;3.97;;;1.70;;
9388;SDS011;4734;52.778;6.798;2023-04-03T05:03:25;2.53;;;1.50;;
9388;SDS011;4734;52.778;6.798;2023-04-03T05:06:11;5.50;;;1.60;;
9388;SDS011;4734;52.778;6.798;2023-04-03T05:08:58;4.23;;;1.77;;
9388;SDS011;4734;52.778;6.798;2023-04-03T05:11:44;3.30;;;2.03;;
9388;SDS011;4734;52.778;6.798;2023-04-03T05:14:29;3.77;;;1.90;;
9388;SDS011;4734;52.778;6.798;2023-04-03T05:17:15;2.47;;;1.53;;
9388;SDS011;4734;52.778;6.798;2023-04-03T05:20:01;2.00;;;1.60;;
9388;SDS011;4734;52.778;6.798;2023-04-03T05:22:47;4.57;;;1.67;;
9388;SDS011;4734;52.778;6.798;2023-04-03T05:25:34;6.43;;;1.90;;
9388;SDS011;4734;52.778;6.798;2023-04-03T05:28:19;2.67;;;1.97;;
9388;SDS011;4734;52.778;6.798;2023-04-03T05:31:05;2.50;;;1.80;;
9388;SDS011;4734;52.778;6.798;2023-04-03T05:33:50;2.23;;;2.03;;
9388;SDS011;4734;52.778;6.798;2023-04-03T05:36:36;3.20;;;1.50;;
9388;SDS011;4734;52.778;6.798;2023-04-03T05:39:22;3.03;;;1.53;;
9388;SDS011;4734;52.778;6.798;2023-04-03T05:42:10;3.70;;;1.73;;
9388;SDS011;4734;52.778;6.798;2023-04-03T05:44:56;3.00;;;1.70;;
9388;SDS011;4734;52.778;6.798;2023-04-03T05:47:42;4.00;;;2.10;;
9388;SDS011;4734;52.778;6.798;2023-04-03T05:50:28;2.00;;;1.60;;
9388;SDS011;4734;52.778;6.798;2023-04-03T05:53:15;3.33;;;1.47;;
9388;SDS011;4734;52.778;6.798;2023-04-03T05:56:02;2.87;;;1.83;;
9388;SDS011;4734;52.778;6.798;2023-04-03T05:58:49;2.40;;;1.60;;
9388;SDS011;4734;52.778;6.798;2023-04-03T06:01:35;3.60;;;1.70;;
9388;SDS011;4734;52.778;6.798;2023-04-03T06:04:20;2.23;;;1.80;;
9388;SDS011;4734;52.778;6.798;2023-04-03T06:07:06;1.83;;;1.60;;
9388;SDS011;4734;52.778;6.798;2023-04-03T06:09:55;3.03;;;1.80;;
9388;SDS011;4734;52.778;6.798;2023-04-03T06:12:41;2.53;;;1.80;;
9388;SDS011;4734;52.778;6.798;2023-04-03T06:15:28;4.73;;;1.80;;
9388;SDS011;4734;52.778;6.798;2023-04-03T06:18:14;3.03;;;1.97;;
9388;SDS011;4734;52.778;6.798;2023-04-03T06:20:59;3.67;;;1.60;;
9388;SDS011;4734;52.778;6.798;2023-04-03T06:23:46;2.90;;;1.90;;
9388;SDS011;4734;52.778;6.798;2023-04-03T06:26:31;6.70;;;1.70;;
9388;SDS011;4734;52.778;6.798;2023-04-03T06:29:17;4.27;;;1.77;;
9388;SDS011;4734;52.778;6.798;2023-04-03T06:32:05;3.47;;;1.70;;
9388;SDS011;4734;52.778;6.798;2023-04-03T06:34:50;2.27;;;1.57;;
9388;SDS011;4734;52.778;6.798;2023-04-03T06:37:37;3.67;;;1.77;;
9388;SDS011;4734;52.778;6.798;2023-04-03T06:40:24;3.40;;;1.87;;
9388;SDS011;4734;52.778;6.798;2023-04-03T06:43:10;5.03;;;1.90;;
9388;SDS011;4734;52.778;6.798;2023-04-03T06:45:56;3.23;;;1.63;;
9388;SDS011;4734;52.778;6.798;2023-04-03T06:48:44;6.70;;;1.80;;
9388;SDS011;4734;52.778;6.798;2023-04-03T06:51:30;2.77;;;1.30;;
9388;SDS011;4734;52.778;6.798;2023-04-03T06:54:16;3.90;;;1.70;;
9388;SDS011;4734;52.778;6.798;2023-04-03T06:57:01;2.80;;;1.50;;
9388;SDS011;4734;52.778;6.798;2023-04-03T06:59:47;4.30;;;1.60;;
9388;SDS011;4734;52.778;6.798;2023-04-03T07:02:32;2.97;;;1.40;;
9388;SDS011;4734;52.778;6.798;2023-04-03T07:05:20;1.90;;;1.40;;
9388;SDS011;4734;52.778;6.798;2023-04-03T07:08:05;2.13;;;1.50;;
9388;SDS011;4734;52.778;6.798;2023-04-03T07:10:51;2.47;;;1.17;;
9388;SDS011;4734;52.778;6.798;2023-04-03T07:13:37;1.60;;;1.27;;
9388;SDS011;4734;52.778;6.798;2023-04-03T07:16:23;2.10;;;1.47;;
9388;SDS011;4734;52.778;6.798;2023-04-03T07:19:09;2.23;;;1.40;;
9388;SDS011;4734;52.778;6.798;2023-04-03T07:21:56;2.77;;;1.70;;
9388;SDS011;4734;52.778;6.798;2023-04-03T07:24:42;3.03;;;1.70;;
9388;SDS011;4734;52.778;6.798;2023-04-03T07:27:27;2.23;;;1.10;;
9388;SDS011;4734;52.778;6.798;2023-04-03T07:30:13;1.57;;;1.20;;
9388;SDS011;4734;52.778;6.798;2023-04-03T07:32:59;2.63;;;1.40;;
9388;SDS011;4734;52.778;6.798;2023-04-03T07:35:45;2.13;;;1.53;;
9388;SDS011;4734;52.778;6.798;2023-04-03T07:38:32;2.37;;;1.23;;
9388;SDS011;4734;52.778;6.798;2023-04-03T07:41:18;2.67;;;1.20;;
9388;SDS011;4734;52.778;6.798;2023-04-03T07:44:06;2.90;;;1.40;;
9388;SDS011;4734;52.778;6.798;2023-04-03T07:46:53;3.67;;;1.83;;
9388;SDS011;4734;52.778;6.798;2023-04-03T07:49:39;2.50;;;1.60;;
9388;SDS011;4734;52.778;6.798;2023-04-03T07:52:25;3.23;;;1.50;;
9388;SDS011;4734;52.778;6.798;2023-04-03T07:55:12;1.97;;;1.60;;
9388;SDS011;4734;52.778;6.798;2023-04-03T07:57:58;3.40;;;1.70;;
9388;SDS011;4734;52.778;6.798;2023-04-03T08:00:46;3.60;;;1.63;;
9388;SDS011;4734;52.778;6.798;2023-04-03T08:03:31;2.23;;;1.63;;
9388;SDS011;4734;52.778;6.798;2023-04-03T08:06:17;1.80;;;1.30;;
9388;SDS011;4734;52.778;6.798;2023-04-03T08:09:02;3.40;;;1.30;;
9388;SDS011;4734;52.778;6.798;2023-04-03T08:11:50;3.37;;;1.60;;
9388;SDS011;4734;52.778;6.798;2023-04-03T08:14:37;2.17;;;1.60;;
9388;SDS011;4734;52.778;6.798;2023-04-03T08:17:22;4.30;;;1.50;;
9388;SDS011;4734;52.778;6.798;2023-04-03T08:20:09;3.63;;;1.63;;
9388;SDS011;4734;52.778;6.798;2023-04-03T08:22:55;3.17;;;1.50;;
9388;SDS011;4734;52.778;6.798;2023-04-03T08:25:41;2.27;;;1.37;;
9388;SDS011;4734;52.778;6.798;2023-04-03T08:28:28;2.23;;;1.33;;
9388;SDS011;4734;52.778;6.798;2023-04-03T08:31:15;2.40;;;1.27;;
9388;SDS011;4734;52.778;6.798;2023-04-03T08:34:00;1.90;;;1.30;;
9388;SDS011;4734;52.778;6.798;2023-04-03T08:36:46;2.40;;;1.50;;
9388;SDS011;4734;52.778;6.798;2023-04-03T08:39:32;5.10;;;1.33;;
9388;SDS011;4734;52.778;6.798;2023-04-03T08:42:19;4.70;;;1.43;;
9388;SDS011;4734;52.778;6.798;2023-04-03T08:45:10;3.43;;;1.50;;
9388;SDS011;4734;52.778;6.798;2023-04-03T08:47:58;2.03;;;1.00;;
9388;SDS011;4734;52.778;6.798;2023-04-03T08:50:46;1.63;;;1.20;;
9388;SDS011;4734;52.778;6.798;2023-04-03T08:53:33;1.47;;;1.37;;
9388;SDS011;4734;52.778;6.798;2023-04-03T08:56:20;1.53;;;1.10;;
9388;SDS011;4734;52.778;6.798;2023-04-03T08:59:10;1.23;;;1.13;;
9388;SDS011;4734;52.778;6.798;2023-04-03T09:01:59;1.43;;;1.17;;
9388;SDS011;4734;52.778;6.798;2023-04-03T09:04:48;2.43;;;1.33;;
9388;SDS011;4734;52.778;6.798;2023-04-03T09:07:35;3.03;;;1.30;;
9388;SDS011;4734;52.778;6.798;2023-04-03T09:10:23;2.10;;;1.27;;
9388;SDS011;4734;52.778;6.798;2023-04-03T09:13:11;1.23;;;1.07;;
9388;SDS011;4734;52.778;6.798;2023-04-03T09:15:59;3.37;;;1.27;;
9388;SDS011;4734;52.778;6.798;2023-04-03T09:18:50;2.67;;;1.20;;
9388;SDS011;4734;52.778;6.798;2023-04-03T09:21:39;1.95;;;1.27;;
9388;SDS011;4734;52.778;6.798;2023-04-03T09:24:26;3.17;;;1.57;;
9388;SDS011;4734;52.778;6.798;2023-04-03T09:27:11;1.83;;;1.40;;
9388;SDS011;4734;52.778;6.798;2023-04-03T09:29:57;3.13;;;1.17;;
9388;SDS011;4734;52.778;6.798;2023-04-03T09:32:44;2.05;;;0.98;;
9388;SDS011;4734;52.778;6.798;2023-04-03T09:35:32;1.20;;;1.10;;
9388;SDS011;4734;52.778;6.798;2023-04-03T09:38:19;1.77;;;1.13;;
9388;SDS011;4734;52.778;6.798;2023-04-03T09:41:06;1.38;;;1.05;;
9388;SDS011;4734;52.778;6.798;2023-04-03T09:43:53;2.08;;;1.30;;
9388;SDS011;4734;52.778;6.798;2023-04-03T09:46:39;2.58;;;1.23;;
9388;SDS011;4734;52.778;6.798;2023-04-03T09:49:25;2.42;;;0.90;;
9388;SDS011;4734;52.778;6.798;2023-04-03T09:52:19;1.75;;;1.15;;
9388;SDS011;4734;52.778;6.798;2023-04-03T09:55:06;2.35;;;0.90;;
9388;SDS011;4734;52.778;6.798;2023-04-03T09:57:52;1.20;;;0.90;;
9388;SDS011;4734;52.778;6.798;2023-04-03T10:00:39;1.35;;;0.95;;
9388;SDS011;4734;52.778;6.798;2023-04-03T10:03:28;1.10;;;1.00;;
9388;SDS011;4734;52.778;6.798;2023-04-03T10:06:21;1.77;;;1.15;;
9388;SDS011;4734;52.778;6.798;2023-04-03T10:09:15;1.45;;;0.95;;
9388;SDS011;4734;52.778;6.798;2023-04-03T10:12:03;1.83;;;1.08;;
9388;SDS011;4734;52.778;6.798;2023-04-03T10:14:53;1.13;;;1.00;;
9388;SDS011;4734;52.778;6.798;2023-04-03T10:17:43;1.67;;;1.10;;
9388;SDS011;4734;52.778;6.798;2023-04-03T10:20:33;1.65;;;0.98;;
9388;SDS011;4734;52.778;6.798;2023-04-03T10:23:21;1.90;;;1.20;;
9388;SDS011;4734;52.778;6.798;2023-04-03T10:26:11;1.52;;;1.08;;
9388;SDS011;4734;52.778;6.798;2023-04-03T10:29:02;1.10;;;1.00;;
9388;SDS011;4734;52.778;6.798;2023-04-03T10:31:51;1.10;;;0.98;;
9388;SDS011;4734;52.778;6.798;2023-04-03T10:34:40;3.47;;;1.20;;
9388;SDS011;4734;52.778;6.798;2023-04-03T10:37:29;1.55;;;1.02;;
9388;SDS011;4734;52.778;6.798;2023-04-03T10:40:25;2.97;;;1.30;;
9388;SDS011;4734;52.778;6.798;2023-04-03T10:43:19;1.13;;;1.00;;
9388;SDS011;4734;52.778;6.798;2023-04-03T10:46:08;1.80;;;1.05;;
9388;SDS011;4734;52.778;6.798;2023-04-03T10:49:02;1.05;;;0.80;;
9388;SDS011;4734;52.778;6.798;2023-04-03T10:51:54;1.40;;;1.20;;
9388;SDS011;4734;52.778;6.798;2023-04-03T10:54:46;2.83;;;1.10;;
9388;SDS011;4734;52.778;6.798;2023-04-03T10:57:33;0.90;;;0.90;;
9388;SDS011;4734;52.778;6.798;2023-04-03T11:00:21;2.33;;;1.05;;
9388;SDS011;4734;52.778;6.798;2023-04-03T11:03:10;1.52;;;0.90;;
9388;SDS011;4734;52.778;6.798;2023-04-03T11:05:56;0.90;;;0.90;;
9388;SDS011;4734;52.778;6.798;2023-04-03T11:08:46;1.38;;;1.23;;
9388;SDS011;4734;52.778;6.798;2023-04-03T11:11:34;2.35;;;1.10;;
9388;SDS011;4734;52.778;6.798;2023-04-03T11:14:22;1.10;;;1.00;;
9388;SDS011;4734;52.778;6.798;2023-04-03T11:17:21;1.63;;;1.05;;
9388;SDS011;4734;52.778;6.798;2023-04-03T11:20:10;2.35;;;1.00;;
9388;SDS011;4734;52.778;6.798;2023-04-03T11:23:01;1.15;;;1.00;;
9388;SDS011;4734;52.778;6.798;2023-04-03T11:25:48;1.80;;;1.30;;
9388;SDS011;4734;52.778;6.798;2023-04-03T11:28:36;1.48;;;1.15;;
9388;SDS011;4734;52.778;6.798;2023-04-03T11:31:28;3.50;;;1.02;;
9388;SDS011;4734;52.778;6.798;2023-04-03T11:34:23;2.00;;;1.30;;
9388;SDS011;4734;52.778;6.798;2023-04-03T11:37:13;1.50;;;1.00;;
9388;SDS011;4734;52.778;6.798;2023-04-03T11:40:00;1.20;;;1.13;;
9388;SDS011;4734;52.778;6.798;2023-04-03T11:42:52;2.17;;;1.20;;
9388;SDS011;4734;52.778;6.798;2023-04-03T11:45:45;2.05;;;1.42;;
9388;SDS011;4734;52.778;6.798;2023-04-03T11:48:42;2.95;;;1.23;;
9388;SDS011;4734;52.778;6.798;2023-04-03T11:51:39;1.40;;;1.10;;
9388;SDS011;4734;52.778;6.798;2023-04-03T11:54:35;1.83;;;1.10;;
9388;SDS011;4734;52.778;6.798;2023-04-03T12:00:50;1.77;;;1.30;;
9388;SDS011;4734;52.778;6.798;2023-04-03T12:12:59;1.95;;;0.90;;
9388;SDS011;4734;52.778;6.798;2023-04-03T12:15:49;2.40;;;1.40;;
9388;SDS011;4734;52.778;6.798;2023-04-03T12:18:40;2.08;;;1.30;;
9388;SDS011;4734;52.778;6.798;2023-04-03T12:24:41;1.88;;;1.20;;
9388;SDS011;4734;52.778;6.798;2023-04-03T12:27:28;2.55;;;1.20;;
9388;SDS011;4734;52.778;6.798;2023-04-03T12:30:20;1.20;;;1.10;;
9388;SDS011;4734;52.778;6.798;2023-04-03T12:33:16;1.35;;;1.20;;
9388;SDS011;4734;52.778;6.798;2023-04-03T12:36:05;2.42;;;1.40;;
9388;SDS011;4734;52.778;6.798;2023-04-03T12:38:57;0.98;;;0.90;;
9388;SDS011;4734;52.778;6.798;2023-04-03T12:41:48;2.83;;;1.38;;
9388;SDS011;4734;52.778;6.798;2023-04-03T12:44:38;1.33;;;1.20;;
9388;SDS011;4734;52.778;6.798;2023-04-03T12:47:28;1.65;;;1.20;;
9388;SDS011;4734;52.778;6.798;2023-04-03T12:50:18;2.17;;;1.42;;
9388;SDS011;4734;52.778;6.798;2023-04-03T12:53:05;2.47;;;1.30;;
9388;SDS011;4734;52.778;6.798;2023-04-03T12:55:53;1.48;;;1.38;;
9388;SDS011;4734;52.778;6.798;2023-04-03T12:58:39;1.60;;;1.40;;
9388;SDS011;4734;52.778;6.798;2023-04-03T13:01:25;1.60;;;1.20;;
9388;SDS011;4734;52.778;6.798;2023-04-03T13:04:12;2.58;;;1.40;;
9388;SDS011;4734;52.778;6.798;2023-04-03T13:06:58;3.65;;;1.30;;
9388;SDS011;4734;52.778;6.798;2023-04-03T13:09:44;2.78;;;1.50;;
9388;SDS011;4734;52.778;6.798;2023-04-03T13:12:45;2.70;;;1.30;;
9388;SDS011;4734;52.778;6.798;2023-04-03T13:15:40;2.60;;;1.50;;
9388;SDS011;4734;52.778;6.798;2023-04-03T13:18:30;2.03;;;1.23;;
9388;SDS011;4734;52.778;6.798;2023-04-03T13:21:18;2.20;;;1.40;;
9388;SDS011;4734;52.778;6.798;2023-04-03T13:24:05;2.47;;;1.40;;
9388;SDS011;4734;52.778;6.798;2023-04-03T13:26:51;2.15;;;1.20;;
9388;SDS011;4734;52.778;6.798;2023-04-03T13:29:38;1.48;;;1.25;;
9388;SDS011;4734;52.778;6.798;2023-04-03T13:32:24;1.33;;;1.23;;
9388;SDS011;4734;52.778;6.798;2023-04-03T13:35:24;2.67;;;1.23;;
9388;SDS011;4734;52.778;6.798;2023-04-03T13:38:23;1.27;;;1.10;;
9388;SDS011;4734;52.778;6.798;2023-04-03T13:41:21;1.92;;;1.30;;
9388;SDS011;4734;52.778;6.798;2023-04-03T13:44:15;2.33;;;1.30;;
9388;SDS011;4734;52.778;6.798;2023-04-03T13:47:14;21.65;;;2.22;;
9388;SDS011;4734;52.778;6.798;2023-04-03T13:50:02;1.92;;;1.10;;
9388;SDS011;4734;52.778;6.798;2023-04-03T13:52:52;1.60;;;1.30;;
9388;SDS011;4734;52.778;6.798;2023-04-03T13:55:51;2.53;;;1.33;;
9388;SDS011;4734;52.778;6.798;2023-04-03T13:58:51;3.53;;;1.50;;
9388;SDS011;4734;52.778;6.798;2023-04-03T14:01:40;1.88;;;1.58;;
9388;SDS011;4734;52.778;6.798;2023-04-03T14:04:28;3.72;;;1.50;;
9388;SDS011;4734;52.778;6.798;2023-04-03T14:07:15;3.03;;;1.00;;
9388;SDS011;4734;52.778;6.798;2023-04-03T14:10:04;1.10;;;1.05;;
9388;SDS011;4734;52.778;6.798;2023-04-03T14:12:51;3.17;;;1.75;;
9388;SDS011;4734;52.778;6.798;2023-04-03T14:15:37;2.42;;;1.40;;
9388;SDS011;4734;52.778;6.798;2023-04-03T14:18:23;3.95;;;1.50;;
9388;SDS011;4734;52.778;6.798;2023-04-03T14:21:09;2.30;;;1.23;;
9388;SDS011;4734;52.778;6.798;2023-04-03T14:23:55;1.35;;;1.25;;
9388;SDS011;4734;52.778;6.798;2023-04-03T14:26:42;1.58;;;1.30;;
9388;SDS011;4734;52.778;6.798;2023-04-03T14:29:30;1.98;;;1.40;;
9388;SDS011;4734;52.778;6.798;2023-04-03T14:32:16;2.75;;;1.55;;
9388;SDS011;4734;52.778;6.798;2023-04-03T14:35:02;3.50;;;1.50;;
9388;SDS011;4734;52.778;6.798;2023-04-03T14:37:48;2.70;;;1.50;;
9388;SDS011;4734;52.778;6.798;2023-04-03T14:40:33;1.90;;;1.27;;
9388;SDS011;4734;52.778;6.798;2023-04-03T14:43:19;2.70;;;1.40;;
9388;SDS011;4734;52.778;6.798;2023-04-03T14:46:08;3.20;;;1.60;;
9388;SDS011;4734;52.778;6.798;2023-04-03T14:48:56;4.35;;;1.60;;
9388;SDS011;4734;52.778;6.798;2023-04-03T14:51:42;1.58;;;1.35;;
9388;SDS011;4734;52.778;6.798;2023-04-03T14:54:28;1.35;;;1.23;;
9388;SDS011;4734;52.778;6.798;2023-04-03T14:57:14;1.42;;;1.33;;
9388;SDS011;4734;52.778;6.798;2023-04-03T15:00:00;2.72;;;1.48;;
9388;SDS011;4734;52.778;6.798;2023-04-03T15:02:49;4.03;;;1.40;;
9388;SDS011;4734;52.778;6.798;2023-04-03T15:05:35;1.60;;;1.50;;
9388;SDS011;4734;52.778;6.798;2023-04-03T15:08:22;2.60;;;1.73;;
9388;SDS011;4734;52.778;6.798;2023-04-03T15:11:09;2.30;;;1.58;;
9388;SDS011;4734;52.778;6.798;2023-04-03T15:13:55;1.92;;;1.67;;
9388;SDS011;4734;52.778;6.798;2023-04-03T15:16:40;2.78;;;1.60;;
9388;SDS011;4734;52.778;6.798;2023-04-03T15:19:27;1.70;;;1.35;;
9388;SDS011;4734;52.778;6.798;2023-04-03T15:22:13;2.42;;;1.50;;
9388;SDS011;4734;52.778;6.798;2023-04-03T15:25:00;2.55;;;1.40;;
9388;SDS011;4734;52.778;6.798;2023-04-03T15:27:46;1.52;;;1.40;;
9388;SDS011;4734;52.778;6.798;2023-04-03T15:30:32;1.88;;;1.20;;
9388;SDS011;4734;52.778;6.798;2023-04-03T15:33:18;2.25;;;1.45;;
9388;SDS011;4734;52.778;6.798;2023-04-03T15:36:05;2.00;;;1.25;;
9388;SDS011;4734;52.778;6.798;2023-04-03T15:38:51;1.83;;;1.35;;
9388;SDS011;4734;52.778;6.798;2023-04-03T15:41:36;1.77;;;1.63;;
9388;SDS011;4734;52.778;6.798;2023-04-03T15:44:22;1.58;;;1.40;;
9388;SDS011;4734;52.778;6.798;2023-04-03T15:47:08;1.95;;;1.38;;
9388;SDS011;4734;52.778;6.798;2023-04-03T15:49:53;2.00;;;1.55;;
9388;SDS011;4734;52.778;6.798;2023-04-03T15:52:41;3.58;;;1.30;;
9388;SDS011;4734;52.778;6.798;2023-04-03T15:55:28;1.73;;;1.33;;
9388;SDS011;4734;52.778;6.798;2023-04-03T15:58:14;1.98;;;1.58;;
9388;SDS011;4734;52.778;6.798;2023-04-03T16:01:00;2.00;;;1.40;;
9388;SDS011;4734;52.778;6.798;2023-04-03T16:03:46;2.10;;;1.90;;
9388;SDS011;4734;52.778;6.798;2023-04-03T16:06:32;3.50;;;1.50;;
9388;SDS011;4734;52.778;6.798;2023-04-03T16:09:20;2.78;;;1.60;;
9388;SDS011;4734;52.778;6.798;2023-04-03T16:12:05;1.65;;;1.50;;
9388;SDS011;4734;52.778;6.798;2023-04-03T16:14:51;2.35;;;1.50;;
9388;SDS011;4734;52.778;6.798;2023-04-03T16:17:37;1.63;;;1.52;;
9388;SDS011;4734;52.778;6.798;2023-04-03T16:20:24;4.80;;;1.88;;
9388;SDS011;4734;52.778;6.798;2023-04-03T16:23:10;2.95;;;1.40;;
9388;SDS011;4734;52.778;6.798;2023-04-03T16:25:58;2.05;;;1.50;;
9388;SDS011;4734;52.778;6.798;2023-04-03T16:28:46;1.52;;;1.30;;
9388;SDS011;4734;52.778;6.798;2023-04-03T16:31:31;1.67;;;1.58;;
9388;SDS011;4734;52.778;6.798;2023-04-03T16:34:17;1.63;;;1.40;;
9388;SDS011;4734;52.778;6.798;2023-04-03T16:37:03;2.45;;;1.60;;
9388;SDS011;4734;52.778;6.798;2023-04-03T16:39:49;2.45;;;1.65;;
9388;SDS011;4734;52.778;6.798;2023-04-03T16:42:36;1.40;;;1.30;;
9388;SDS011;4734;52.778;6.798;2023-04-03T16:45:21;1.85;;;1.35;;
9388;SDS011;4734;52.778;6.798;2023-04-03T16:48:07;2.03;;;1.35;;
9388;SDS011;4734;52.778;6.798;2023-04-03T16:50:53;2.10;;;1.40;;
9388;SDS011;4734;52.778;6.798;2023-04-03T16:53:38;1.70;;;1.45;;
9388;SDS011;4734;52.778;6.798;2023-04-03T16:56:24;1.55;;;1.35;;
9388;SDS011;4734;52.778;6.798;2023-04-03T16:59:12;1.23;;;1.13;;
9388;SDS011;4734;52.778;6.798;2023-04-03T17:01:57;2.17;;;1.48;;
9388;SDS011;4734;52.778;6.798;2023-04-03T17:04:43;2.88;;;1.20;;
9388;SDS011;4734;52.778;6.798;2023-04-03T17:07:29;1.90;;;1.52;;
9388;SDS011;4734;52.778;6.798;2023-04-03T17:10:14;1.35;;;1.20;;
9388;SDS011;4734;52.778;6.798;2023-04-03T17:13:00;2.38;;;1.40;;
9388;SDS011;4734;52.778;6.798;2023-04-03T17:15:47;2.13;;;1.42;;
9388;SDS011;4734;52.778;6.798;2023-04-03T17:18:33;1.58;;;1.33;;
9388;SDS011;4734;52.778;6.798;2023-04-03T17:21:19;1.45;;;1.30;;
9388;SDS011;4734;52.778;6.798;2023-04-03T17:24:05;1.38;;;1.27;;
9388;SDS011;4734;52.778;6.798;2023-04-03T17:26:56;4.05;;;2.17;;
9388;SDS011;4734;52.778;6.798;2023-04-03T17:29:41;2.08;;;1.40;;
9388;SDS011;4734;52.778;6.798;2023-04-03T17:32:28;1.77;;;1.67;;
9388;SDS011;4734;52.778;6.798;2023-04-03T17:35:14;3.90;;;1.50;;
9388;SDS011;4734;52.778;6.798;2023-04-03T17:38:00;3.45;;;1.60;;
9388;SDS011;4734;52.778;6.798;2023-04-03T17:40:45;2.45;;;1.63;;